Time;durP1;ratioP1;P1;durP2;ratioP2;P2;SDS_P1;SDS_P2;PMS_P1;PMS_P2;Temp;Humidity;BMP_temperature;BMP_pressure;BME280_temperature;BME280_humidity;BME280_pressure;Samples;Min_cycle;Max_cycle;Signal;HPM_P1;HPM_P2
2022/04/28 00:02:16;;;;;;;12.80;7.55;;;;;;;;;;5008476;28;20041;-81
2022/04/28 00:04:42;;;;;;;11.65;7.72;;;;;;;;;;4997211;28;20030;-81
2022/04/28 00:07:08;;;;;;;10.88;7.72;;;;;;;;;;5007333;28;20056;-81
2022/04/28 00:09:34;;;;;;;11.38;8.02;;;;;;;;;;5009695;28;20065;-81
2022/04/28 00:12:00;;;;;;;11.85;8.02;;;;;;;;;;5008742;28;20030;-81
2022/04/28 00:14:26;;;;;;;12.57;8.18;;;;;;;;;;5007494;28;20031;-81
2022/04/28 00:16:52;;;;;;;11.43;8.15;;;;;;;;;;5007370;28;20029;-81
2022/04/28 00:19:18;;;;;;;12.13;8.57;;;;;;;;;;5009018;28;20112;-81
2022/04/28 00:21:44;;;;;;;9.73;7.03;;;;;;;;;;5009717;28;20052;-81
2022/04/28 00:24:10;;;;;;;11.18;8.10;;;;;;;;;;5007033;28;20036;-81
2022/04/28 00:26:36;;;;;;;11.60;8.20;;;;;;;;;;5008403;28;20090;-81
2022/04/28 00:29:02;;;;;;;13.05;8.20;;;;;;;;;;5008149;28;20516;-81
2022/04/28 00:31:28;;;;;;;11.98;8.35;;;;;;;;;;4998456;28;20041;-81
2022/04/28 00:33:55;;;;;;;10.77;7.80;;;;;;;;;;5004715;28;20034;-81
2022/04/28 00:36:21;;;;;;;11.32;8.15;;;;;;;;;;5007640;28;20137;-81
2022/04/28 00:38:47;;;;;;;10.55;8.05;;;;;;;;;;5007828;28;20026;-81
2022/04/28 00:41:13;;;;;;;12.10;8.13;;;;;;;;;;5007950;28;20026;-81
2022/04/28 00:43:53;;;;;;;12.15;8.15;;;;;;;;;;5007081;28;20046;-81
2022/04/28 00:46:19;;;;;;;11.65;8.30;;;;;;;;;;5007281;28;20369;-81
2022/04/28 00:51:37;;;;;;;15.35;9.50;;;;;;;;;;5008501;28;20045;-81
2022/04/28 00:54:04;;;;;;;12.18;8.25;;;;;;;;;;5006931;28;20026;-81
2022/04/28 00:56:30;;;;;;;11.80;7.95;;;;;;;;;;5008584;28;20049;-81
2022/04/28 00:59:02;;;;;;;12.13;8.63;;;;;;;;;;5005730;28;20064;-81
2022/04/28 01:01:28;;;;;;;11.88;8.52;;;;;;;;;;5008370;28;20153;-81
2022/04/28 01:03:54;;;;;;;13.88;8.13;;;;;;;;;;5007983;28;20116;-81
2022/04/28 01:06:20;;;;;;;12.38;7.93;;;;;;;;;;5008069;28;20298;-81
2022/04/28 01:08:46;;;;;;;11.52;8.02;;;;;;;;;;5006815;28;20061;-81
2022/04/28 01:11:12;;;;;;;11.60;8.23;;;;;;;;;;5008512;28;20029;-82
2022/04/28 01:13:38;;;;;;;11.52;7.72;;;;;;;;;;5007083;28;20717;-81
2022/04/28 01:16:05;;;;;;;12.13;8.10;;;;;;;;;;5007009;28;20026;-81
2022/04/28 01:18:31;;;;;;;11.50;7.78;;;;;;;;;;5008804;28;20030;-81
2022/04/28 01:21:01;;;;;;;12.13;8.60;;;;;;;;;;4991700;28;20035;-82
2022/04/28 01:23:28;;;;;;;12.32;8.50;;;;;;;;;;5000349;28;20031;-81
2022/04/28 01:25:54;;;;;;;12.13;8.20;;;;;;;;;;5006990;28;20018;-81
2022/04/28 01:28:20;;;;;;;11.48;8.40;;;;;;;;;;4999130;28;20033;-81
2022/04/28 01:30:46;;;;;;;10.68;7.60;;;;;;;;;;5008029;28;20030;-81
2022/04/28 01:33:12;;;;;;;11.02;7.60;;;;;;;;;;5000651;28;20438;-81
2022/04/28 01:35:38;;;;;;;12.07;7.80;;;;;;;;;;5004734;28;20027;-81
2022/04/28 01:38:04;;;;;;;12.38;7.78;;;;;;;;;;4998209;28;20031;-81
2022/04/28 01:40:30;;;;;;;10.45;7.47;;;;;;;;;;5009037;28;20061;-81
2022/04/28 01:42:56;;;;;;;12.60;8.43;;;;;;;;;;5006799;28;20046;-81
2022/04/28 01:45:22;;;;;;;11.48;8.10;;;;;;;;;;5009106;28;20037;-81
2022/04/28 01:47:48;;;;;;;10.90;7.65;;;;;;;;;;5001882;28;20038;-81
2022/04/28 01:50:14;;;;;;;11.98;8.15;;;;;;;;;;5003401;28;20045;-81
2022/04/28 01:55:25;;;;;;;11.15;7.97;;;;;;;;;;5011353;28;20550;-81
2022/04/28 01:57:51;;;;;;;11.43;8.48;;;;;;;;;;5000466;28;20069;-81
2022/04/28 02:00:17;;;;;;;11.93;8.05;;;;;;;;;;4995142;28;20042;-81
2022/04/28 02:02:45;;;;;;;23.35;9.32;;;;;;;;;;5011709;28;20022;-81
2022/04/28 02:05:12;;;;;;;12.27;7.90;;;;;;;;;;5012597;28;20062;-81
2022/04/28 02:07:38;;;;;;;11.35;8.20;;;;;;;;;;5010944;28;20058;-81
2022/04/28 02:10:05;;;;;;;11.77;8.25;;;;;;;;;;5011030;28;20030;-81
2022/04/28 02:12:32;;;;;;;13.57;8.77;;;;;;;;;;5011495;28;20080;-81
2022/04/28 02:14:58;;;;;;;12.15;8.35;;;;;;;;;;5010582;28;20050;-81
2022/04/28 02:17:27;;;;;;;12.23;7.88;;;;;;;;;;5012419;28;20081;-81
2022/04/28 02:19:53;;;;;;;12.75;7.72;;;;;;;;;;5008647;28;20026;-81
2022/04/28 02:22:20;;;;;;;11.07;8.35;;;;;;;;;;5010015;28;20030;-81
2022/04/28 02:24:46;;;;;;;11.73;8.23;;;;;;;;;;5010432;28;20500;-81
2022/04/28 02:27:12;;;;;;;12.98;7.80;;;;;;;;;;4999557;28;20090;-81
2022/04/28 02:29:38;;;;;;;11.85;7.72;;;;;;;;;;4992599;28;20034;-81
2022/04/28 02:32:04;;;;;;;12.25;8.20;;;;;;;;;;5006368;28;20065;-81
2022/04/28 02:34:30;;;;;;;12.60;7.60;;;;;;;;;;5011116;28;20440;-81
2022/04/28 02:36:57;;;;;;;10.90;8.40;;;;;;;;;;5012023;28;20403;-80
2022/04/28 02:39:23;;;;;;;11.55;7.97;;;;;;;;;;5010809;28;20081;-81
2022/04/28 02:41:49;;;;;;;13.63;8.73;;;;;;;;;;5010035;28;20416;-81
2022/04/28 02:44:15;;;;;;;11.23;7.95;;;;;;;;;;5011164;28;20034;-81
2022/04/28 02:46:48;;;;;;;12.73;8.82;;;;;;;;;;5010337;28;20094;-81
2022/04/28 02:49:14;;;;;;;13.60;8.60;;;;;;;;;;5010074;28;20108;-81
2022/04/28 02:51:40;;;;;;;12.18;8.18;;;;;;;;;;5009862;28;20054;-81
2022/04/28 02:54:07;;;;;;;12.60;8.85;;;;;;;;;;5010500;28;20026;-81
2022/04/28 02:56:33;;;;;;;12.00;7.95;;;;;;;;;;5010823;28;20093;-81
2022/04/28 02:58:59;;;;;;;13.32;8.73;;;;;;;;;;5009045;28;20026;-82
2022/04/28 03:01:26;;;;;;;11.75;8.20;;;;;;;;;;5003063;28;20043;-82
2022/04/28 03:03:52;;;;;;;12.05;7.93;;;;;;;;;;5005897;28;20065;-82
2022/04/28 03:11:48;;;;;;;12.25;8.32;;;;;;;;;;5010763;28;20092;-81
2022/04/28 03:14:15;;;;;;;12.30;8.23;;;;;;;;;;5010284;28;20029;-80
2022/04/28 03:16:41;;;;;;;12.98;9.43;;;;;;;;;;5010014;28;20121;-82
2022/04/28 03:19:07;;;;;;;13.55;9.20;;;;;;;;;;4990792;28;20018;-83
2022/04/28 03:21:33;;;;;;;12.82;9.23;;;;;;;;;;5006355;28;20034;-82
2022/04/28 03:23:59;;;;;;;12.13;8.23;;;;;;;;;;4998525;28;20072;-81
2022/04/28 03:26:26;;;;;;;13.45;8.45;;;;;;;;;;5010571;28;20034;-80
2022/04/28 03:28:52;;;;;;;12.50;9.02;;;;;;;;;;5010391;28;20034;-82
2022/04/28 03:31:18;;;;;;;14.75;8.23;;;;;;;;;;5009095;28;20027;-82
2022/04/28 03:33:44;;;;;;;13.00;8.82;;;;;;;;;;5007553;28;20026;-82
2022/04/28 03:38:55;;;;;;;11.77;8.40;;;;;;;;;;5010846;28;20041;-80
2022/04/28 03:41:21;;;;;;;12.82;8.90;;;;;;;;;;5009243;28;20030;-82
2022/04/28 03:43:47;;;;;;;12.80;9.15;;;;;;;;;;5008427;28;20062;-81
2022/04/28 03:46:15;;;;;;;11.68;8.73;;;;;;;;;;5009657;28;20031;-80
2022/04/28 03:48:41;;;;;;;13.00;8.35;;;;;;;;;;5010938;28;20025;-80
2022/04/28 03:51:07;;;;;;;12.98;9.10;;;;;;;;;;5025839;28;20030;-80
2022/04/28 03:53:33;;;;;;;11.00;8.60;;;;;;;;;;5010546;28;20058;-80
2022/04/28 03:55:59;;;;;;;12.68;9.35;;;;;;;;;;5009290;28;20030;-80
2022/04/28 03:58:25;;;;;;;15.50;9.15;;;;;;;;;;4998991;28;20034;-82
2022/04/28 04:00:52;;;;;;;13.30;8.73;;;;;;;;;;5005168;28;20026;-81
2022/04/28 04:03:19;;;;;;;13.65;9.63;;;;;;;;;;5008533;28;20022;-81
2022/04/28 04:05:45;;;;;;;14.85;9.50;;;;;;;;;;5007559;28;20030;-80
2022/04/28 04:08:12;;;;;;;14.57;9.55;;;;;;;;;;5002174;28;20069;-81
2022/04/28 04:10:38;;;;;;;11.68;8.35;;;;;;;;;;5010106;28;20027;-81
2022/04/28 04:13:04;;;;;;;13.10;9.00;;;;;;;;;;5007026;28;20065;-81
2022/04/28 04:15:32;;;;;;;13.82;9.07;;;;;;;;;;5004351;28;20022;-81
2022/04/28 04:17:58;;;;;;;12.60;9.55;;;;;;;;;;5006114;28;20025;-81
2022/04/28 04:20:25;;;;;;;11.88;8.55;;;;;;;;;;5003411;28;20019;-81
2022/04/28 04:22:52;;;;;;;12.43;8.50;;;;;;;;;;5003534;28;20018;-81
2022/04/28 04:25:18;;;;;;;14.57;9.30;;;;;;;;;;5010439;28;20034;-81
2022/04/28 04:27:44;;;;;;;12.43;9.13;;;;;;;;;;5015722;28;20045;-80
2022/04/28 04:32:56;;;;;;;14.90;10.23;;;;;;;;;;5011224;28;20069;-80
2022/04/28 04:35:23;;;;;;;13.15;9.65;;;;;;;;;;5017389;28;20065;-80
2022/04/28 04:37:50;;;;;;;14.50;9.82;;;;;;;;;;5017864;28;20014;-81
2022/04/28 04:40:16;;;;;;;14.23;9.73;;;;;;;;;;5013529;28;20037;-82
2022/04/28 04:42:42;;;;;;;18.75;9.88;;;;;;;;;;5008047;28;20077;-83
2022/04/28 04:45:09;;;;;;;13.38;9.10;;;;;;;;;;5009081;28;20445;-82
2022/04/28 04:47:36;;;;;;;13.48;9.27;;;;;;;;;;5000420;28;20031;-82
2022/04/28 04:50:02;;;;;;;13.25;9.10;;;;;;;;;;5009017;28;20034;-80
2022/04/28 04:52:28;;;;;;;11.90;9.10;;;;;;;;;;4990173;28;20027;-80
2022/04/28 04:54:54;;;;;;;11.98;9.15;;;;;;;;;;4990141;28;20066;-81
2022/04/28 04:57:20;;;;;;;12.30;9.07;;;;;;;;;;5007424;28;20042;-80
2022/04/28 04:59:46;;;;;;;13.45;9.18;;;;;;;;;;5004936;28;20104;-81
2022/04/28 05:02:12;;;;;;;14.75;9.63;;;;;;;;;;4996617;28;20481;-81
2022/04/28 05:04:38;;;;;;;13.68;9.38;;;;;;;;;;5004964;28;20033;-82
2022/04/28 05:07:04;;;;;;;13.30;9.65;;;;;;;;;;5011325;28;20014;-81
2022/04/28 05:09:30;;;;;;;12.02;9.38;;;;;;;;;;5017238;28;20026;-80
2022/04/28 05:11:56;;;;;;;13.13;9.57;;;;;;;;;;5015576;28;20019;-81
2022/04/28 05:14:22;;;;;;;13.48;9.35;;;;;;;;;;5017062;28;20061;-81
2022/04/28 05:16:48;;;;;;;13.00;9.27;;;;;;;;;;5013780;28;20015;-81
2022/04/28 05:19:14;;;;;;;14.60;9.48;;;;;;;;;;5002404;28;20030;-80
2022/04/28 05:21:40;;;;;;;16.73;10.10;;;;;;;;;;5003625;28;20022;-80
2022/04/28 05:24:06;;;;;;;14.30;10.45;;;;;;;;;;5005166;28;20121;-81
2022/04/28 05:26:33;;;;;;;16.80;9.55;;;;;;;;;;4990933;28;20065;-81
2022/04/28 05:29:00;;;;;;;13.25;9.15;;;;;;;;;;5005887;28;20117;-82
2022/04/28 05:31:26;;;;;;;11.73;8.48;;;;;;;;;;5001562;28;20030;-83
2022/04/28 05:33:52;;;;;;;11.30;9.07;;;;;;;;;;4991190;28;20069;-81
2022/04/28 05:36:18;;;;;;;11.98;9.18;;;;;;;;;;5003517;28;20046;-81
2022/04/28 05:38:44;;;;;;;12.35;8.48;;;;;;;;;;5005456;28;20042;-80
2022/04/28 05:41:10;;;;;;;13.35;9.05;;;;;;;;;;5003388;28;20181;-83
2022/04/28 05:46:23;;;;;;;12.23;9.15;;;;;;;;;;4997350;28;20042;-83
2022/04/28 05:48:49;;;;;;;12.98;9.80;;;;;;;;;;5006305;28;20014;-81
2022/04/28 05:51:15;;;;;;;13.75;9.13;;;;;;;;;;5004408;28;20042;-81
2022/04/28 05:53:41;;;;;;;11.77;8.75;;;;;;;;;;5005588;28;20034;-82
2022/04/28 05:56:07;;;;;;;13.55;9.18;;;;;;;;;;5005511;28;20034;-83
2022/04/28 05:58:33;;;;;;;13.10;8.65;;;;;;;;;;5006888;28;20030;-83
2022/04/28 06:01:00;;;;;;;12.55;9.10;;;;;;;;;;5011555;28;20069;-83
2022/04/28 06:03:26;;;;;;;13.50;8.60;;;;;;;;;;5003317;28;20056;-84
2022/04/28 06:05:52;;;;;;;10.77;8.63;;;;;;;;;;5005352;28;20034;-83
2022/04/28 06:08:18;;;;;;;13.05;9.18;;;;;;;;;;5007051;28;20101;-80
2022/04/28 06:10:44;;;;;;;12.57;8.70;;;;;;;;;;5006658;28;20034;-80
2022/04/28 06:13:11;;;;;;;10.48;8.25;;;;;;;;;;5006552;28;20045;-80
2022/04/28 06:15:37;;;;;;;11.07;8.35;;;;;;;;;;5006289;28;20374;-82
2022/04/28 06:18:03;;;;;;;11.77;9.13;;;;;;;;;;5005979;28;20026;-81
2022/04/28 06:20:30;;;;;;;13.15;9.10;;;;;;;;;;4993308;28;20042;-81
2022/04/28 06:22:56;;;;;;;12.95;9.25;;;;;;;;;;4986515;28;20486;-80
2022/04/28 06:25:23;;;;;;;12.43;9.38;;;;;;;;;;4997567;28;20031;-80
2022/04/28 06:27:50;;;;;;;13.20;9.18;;;;;;;;;;4985431;28;20030;-83
2022/04/28 06:30:17;;;;;;;12.43;8.68;;;;;;;;;;4997729;28;20026;-83
2022/04/28 06:32:43;;;;;;;11.85;8.77;;;;;;;;;;5006062;28;20035;-83
2022/04/28 06:35:09;;;;;;;11.27;8.63;;;;;;;;;;5009219;28;20066;-83
2022/04/28 06:37:35;;;;;;;13.63;9.68;;;;;;;;;;5009715;28;20097;-81
2022/04/28 06:40:01;;;;;;;13.93;9.15;;;;;;;;;;5003594;28;20536;-81
2022/04/28 06:42:27;;;;;;;13.45;9.27;;;;;;;;;;4990335;28;20046;-82
2022/04/28 06:44:53;;;;;;;10.98;8.23;;;;;;;;;;5006989;28;20073;-81
2022/04/28 06:47:21;;;;;;;14.18;9.02;;;;;;;;;;5007611;28;20026;-82
2022/04/28 06:49:47;;;;;;;11.32;8.52;;;;;;;;;;5002882;28;20501;-81
2022/04/28 06:52:13;;;;;;;11.80;8.10;;;;;;;;;;4990812;28;20038;-82
2022/04/28 06:54:39;;;;;;;12.02;8.60;;;;;;;;;;5000328;28;20072;-82
2022/04/28 06:57:05;;;;;;;11.23;8.02;;;;;;;;;;4992773;28;20027;-81
2022/04/28 06:59:31;;;;;;;11.90;8.55;;;;;;;;;;4991760;28;20031;-82
2022/04/28 07:01:58;;;;;;;12.73;9.55;;;;;;;;;;5009498;28;20619;-82
2022/04/28 07:04:24;;;;;;;11.75;9.45;;;;;;;;;;5010362;28;20030;-82
2022/04/28 07:06:50;;;;;;;11.38;8.98;;;;;;;;;;5009388;28;20505;-81
2022/04/28 07:09:16;;;;;;;10.50;8.68;;;;;;;;;;5007182;28;20053;-82
2022/04/28 07:11:42;;;;;;;11.13;8.95;;;;;;;;;;4998283;28;20072;-83
2022/04/28 07:14:08;;;;;;;13.10;9.15;;;;;;;;;;5008534;28;20030;-83
2022/04/28 07:16:34;;;;;;;12.55;9.65;;;;;;;;;;5010658;28;20084;-83
2022/04/28 07:19:00;;;;;;;11.00;8.82;;;;;;;;;;5009927;28;20007;-82
2022/04/28 07:21:26;;;;;;;13.23;8.95;;;;;;;;;;5001573;28;20030;-83
2022/04/28 07:23:52;;;;;;;12.77;9.57;;;;;;;;;;5008061;28;20034;-83
2022/04/28 07:26:18;;;;;;;13.43;10.73;;;;;;;;;;5007747;28;20042;-83
2022/04/28 07:28:44;;;;;;;12.30;9.38;;;;;;;;;;5010287;28;20026;-83
2022/04/28 07:31:10;;;;;;;11.10;9.02;;;;;;;;;;5000781;28;20041;-83
2022/04/28 07:33:36;;;;;;;13.30;10.30;;;;;;;;;;4987818;28;20027;-84
2022/04/28 07:36:03;;;;;;;11.43;8.85;;;;;;;;;;4990731;28;20033;-83
2022/04/28 07:38:29;;;;;;;15.82;9.75;;;;;;;;;;4990158;28;20018;-82
2022/04/28 07:40:55;;;;;;;11.30;9.65;;;;;;;;;;5002721;28;20014;-83
2022/04/28 07:43:22;;;;;;;12.98;10.27;;;;;;;;;;4991419;28;20429;-83
2022/04/28 07:45:49;;;;;;;12.45;9.75;;;;;;;;;;4990548;28;20093;-83
2022/04/28 07:48:15;;;;;;;11.77;9.75;;;;;;;;;;4991059;28;20328;-83
2022/04/28 07:50:41;;;;;;;13.73;10.02;;;;;;;;;;5004507;28;20035;-83
2022/04/28 07:53:07;;;;;;;15.13;10.23;;;;;;;;;;5011499;28;20030;-84
2022/04/28 07:55:35;;;;;;;16.85;10.30;;;;;;;;;;5009822;28;20022;-83
2022/04/28 07:58:01;;;;;;;13.52;10.10;;;;;;;;;;5010455;28;20035;-83
2022/04/28 08:00:27;;;;;;;14.02;10.50;;;;;;;;;;5010870;28;20046;-83
2022/04/28 08:02:54;;;;;;;13.90;10.55;;;;;;;;;;4992495;28;20031;-82
2022/04/28 08:05:20;;;;;;;14.48;10.65;;;;;;;;;;5004148;28;20046;-83
2022/04/28 08:07:46;;;;;;;16.05;11.65;;;;;;;;;;5012193;28;20054;-83
2022/04/28 08:10:12;;;;;;;15.23;10.50;;;;;;;;;;5008971;28;20185;-83
2022/04/28 08:12:38;;;;;;;16.15;10.57;;;;;;;;;;5008439;28;20389;-83
2022/04/28 08:15:07;;;;;;;13.55;9.80;;;;;;;;;;5008307;28;20384;-84
2022/04/28 08:17:35;;;;;;;12.82;10.48;;;;;;;;;;5007527;28;20508;-84
2022/04/28 08:20:01;;;;;;;17.00;11.50;;;;;;;;;;5008805;28;20116;-83
2022/04/28 08:22:27;;;;;;;13.40;10.95;;;;;;;;;;4992338;28;20587;-83
2022/04/28 08:24:53;;;;;;;13.73;10.45;;;;;;;;;;4991343;28;20014;-82
2022/04/28 08:27:24;;;;;;;11.95;10.30;;;;;;;;;;4989672;28;20070;-83
2022/04/28 08:29:50;;;;;;;15.20;11.85;;;;;;;;;;4989651;28;20102;-83
2022/04/28 08:32:16;;;;;;;14.68;11.43;;;;;;;;;;4990926;28;20095;-82
2022/04/28 08:34:42;;;;;;;14.10;10.80;;;;;;;;;;4994755;28;20030;-83
2022/04/28 08:37:09;;;;;;;13.55;10.32;;;;;;;;;;5008221;28;20030;-82
2022/04/28 08:39:35;;;;;;;12.73;11.02;;;;;;;;;;5009420;28;20022;-84
2022/04/28 08:42:01;;;;;;;13.52;12.02;;;;;;;;;;5009043;28;20065;-82
2022/04/28 08:44:27;;;;;;;15.88;11.52;;;;;;;;;;5007529;28;20018;-83
2022/04/28 08:46:54;;;;;;;16.23;10.98;;;;;;;;;;5008254;28;20030;-84
2022/04/28 08:49:23;;;;;;;13.02;10.68;;;;;;;;;;5007501;28;20026;-83
2022/04/28 08:51:50;;;;;;;13.73;10.10;;;;;;;;;;4997940;28;20037;-82
2022/04/28 08:54:17;;;;;;;13.10;9.05;;;;;;;;;;4989872;28;20030;-83
2022/04/28 08:56:43;;;;;;;16.63;8.30;;;;;;;;;;4988917;28;20370;-83
2022/04/28 08:59:09;;;;;;;12.35;9.38;;;;;;;;;;4987988;28;20037;-81
2022/04/28 09:01:35;;;;;;;12.52;8.85;;;;;;;;;;4993995;28;20314;-83
2022/04/28 09:04:02;;;;;;;13.35;10.02;;;;;;;;;;5006491;28;20026;-82
2022/04/28 09:06:34;;;;;;;11.02;8.40;;;;;;;;;;4986160;28;20034;-83
2022/04/28 09:09:01;;;;;;;10.27;7.88;;;;;;;;;;4985507;28;20007;-82
2022/04/28 09:11:28;;;;;;;10.90;7.72;;;;;;;;;;4994006;28;20528;-82
2022/04/28 09:14:09;;;;;;;10.57;7.72;;;;;;;;;;5005531;28;20026;-82
2022/04/28 09:16:36;;;;;;;14.82;7.13;;;;;;;;;;5007552;28;20045;-83
2022/04/28 09:19:02;;;;;;;7.95;6.90;;;;;;;;;;5004389;28;20022;-82
2022/04/28 09:21:30;;;;;;;9.80;7.95;;;;;;;;;;5005792;28;20026;-81
2022/04/28 09:23:56;;;;;;;11.40;8.13;;;;;;;;;;5005143;28;20034;-82
2022/04/28 09:26:25;;;;;;;9.75;7.88;;;;;;;;;;5006748;28;20056;-82
2022/04/28 09:28:55;;;;;;;8.48;6.65;;;;;;;;;;5007210;28;20555;-83
2022/04/28 09:31:23;;;;;;;10.30;7.03;;;;;;;;;;5005551;28;20042;-84
2022/04/28 09:33:49;;;;;;;10.52;8.00;;;;;;;;;;5003945;28;20023;-83
2022/04/28 09:36:16;;;;;;;8.93;7.18;;;;;;;;;;5006027;28;20078;-83
2022/04/28 09:38:42;;;;;;;8.20;5.57;;;;;;;;;;5003901;28;20026;-81
2022/04/28 09:43:57;;;;;;;9.15;6.45;;;;;;;;;;5003070;28;20412;-82
2022/04/28 09:46:23;;;;;;;8.15;5.40;;;;;;;;;;5002928;28;20034;-82
2022/04/28 09:48:49;;;;;;;7.95;5.90;;;;;;;;;;5007861;28;20393;-83
2022/04/28 09:51:20;;;;;;;7.35;5.20;;;;;;;;;;5002602;28;20035;-84
2022/04/28 09:53:48;;;;;;;7.97;5.35;;;;;;;;;;4989614;28;20030;-83
2022/04/28 09:56:16;;;;;;;8.30;5.00;;;;;;;;;;5003083;28;20030;-82
2022/04/28 09:58:42;;;;;;;7.60;4.47;;;;;;;;;;5003649;28;20025;-84
2022/04/28 10:01:08;;;;;;;6.40;4.40;;;;;;;;;;5002729;28;20023;-82
2022/04/28 10:03:37;;;;;;;7.43;5.00;;;;;;;;;;5004803;28;20026;-83
2022/04/28 10:06:05;;;;;;;8.05;5.70;;;;;;;;;;5001944;28;20042;-84
2022/04/28 10:08:33;;;;;;;6.72;4.80;;;;;;;;;;5009494;28;20036;-84
2022/04/28 10:11:00;;;;;;;7.97;5.28;;;;;;;;;;5007621;28;20029;-83
2022/04/28 10:13:26;;;;;;;8.55;5.15;;;;;;;;;;5006946;28;20420;-83
2022/04/28 10:15:55;;;;;;;8.23;5.53;;;;;;;;;;5007264;28;20046;-84
2022/04/28 10:18:23;;;;;;;7.45;5.43;;;;;;;;;;5002897;28;20023;-83
2022/04/28 10:20:50;;;;;;;7.50;5.50;;;;;;;;;;5009272;28;20022;-83
2022/04/28 10:23:18;;;;;;;8.32;5.40;;;;;;;;;;5008058;28;20030;-83
2022/04/28 10:34:10;;;;;;;7.90;4.95;;;;;;;;;;5008479;28;20057;-83
2022/04/28 10:36:50;;;;;;;7.88;4.60;;;;;;;;;;5008069;28;20022;-83
2022/04/28 10:39:16;;;;;;;7.18;4.25;;;;;;;;;;4989840;28;20050;-83
2022/04/28 10:41:42;;;;;;;7.65;4.65;;;;;;;;;;4990042;28;20022;-83
2022/04/28 10:44:18;;;;;;;6.05;3.72;;;;;;;;;;4991514;28;20114;-84
2022/04/28 10:47:10;;;;;;;8.57;4.07;;;;;;;;;;5008529;28;20077;-83
2022/04/28 10:49:37;;;;;;;8.32;5.05;;;;;;;;;;5002064;28;20049;-82
2022/04/28 10:52:04;;;;;;;6.72;4.15;;;;;;;;;;4986882;28;20037;-83
2022/04/28 10:54:43;;;;;;;7.10;5.03;;;;;;;;;;4987119;28;20061;-84
2022/04/28 10:57:12;;;;;;;9.00;4.53;;;;;;;;;;4986292;28;20015;-83
2022/04/28 10:59:39;;;;;;;7.30;4.70;;;;;;;;;;4987456;28;20026;-83
2022/04/28 11:02:11;;;;;;;7.18;5.28;;;;;;;;;;4987595;28;20050;-83
2022/04/28 11:04:37;;;;;;;7.93;4.87;;;;;;;;;;5005167;28;20629;-83
2022/04/28 11:07:08;;;;;;;7.32;5.05;;;;;;;;;;5005666;28;20378;-84
2022/04/28 11:09:41;;;;;;;7.53;5.20;;;;;;;;;;5004166;28;20496;-83
2022/04/28 11:12:09;;;;;;;7.18;4.93;;;;;;;;;;5002020;28;20075;-84
2022/04/28 11:14:45;;;;;;;7.18;5.10;;;;;;;;;;5001544;28;20022;-84
2022/04/28 11:17:15;;;;;;;8.40;5.72;;;;;;;;;;5003200;28;20436;-83
2022/04/28 11:19:41;;;;;;;7.10;5.38;;;;;;;;;;5011437;28;20026;-83
2022/04/28 11:22:07;;;;;;;7.70;4.75;;;;;;;;;;5007138;28;20421;-82
2022/04/28 11:24:34;;;;;;;7.47;5.70;;;;;;;;;;5005926;28;20041;-83
2022/04/28 11:27:00;;;;;;;10.52;6.50;;;;;;;;;;5006067;28;20094;-83
2022/04/28 11:29:28;;;;;;;9.30;6.20;;;;;;;;;;5003597;28;20367;-83
2022/04/28 11:31:54;;;;;;;13.10;6.32;;;;;;;;;;5007740;28;20058;-83
2022/04/28 11:34:21;;;;;;;8.70;5.90;;;;;;;;;;5008023;28;20065;-82
2022/04/28 11:36:47;;;;;;;8.27;5.88;;;;;;;;;;5005212;28;20022;-83
2022/04/28 11:39:13;;;;;;;7.95;5.50;;;;;;;;;;5004024;28;20023;-83
2022/04/28 11:41:40;;;;;;;9.05;6.47;;;;;;;;;;5004915;28;20181;-84
2022/04/28 11:44:07;;;;;;;11.90;6.43;;;;;;;;;;5003377;28;20113;-84
2022/04/28 11:46:53;;;;;;;10.95;6.57;;;;;;;;;;4987674;28;20015;-83
2022/04/28 11:49:20;;;;;;;10.55;6.30;;;;;;;;;;5004568;28;20046;-83
2022/04/28 11:51:46;;;;;;;11.27;6.43;;;;;;;;;;5001582;28;20026;-83
2022/04/28 11:54:20;;;;;;;8.23;6.22;;;;;;;;;;5003341;28;20034;-83
2022/04/28 11:56:47;;;;;;;9.95;6.72;;;;;;;;;;4995502;28;20023;-82
2022/04/28 11:59:13;;;;;;;8.60;6.63;;;;;;;;;;5004459;28;20022;-83
2022/04/28 12:01:40;;;;;;;7.90;6.22;;;;;;;;;;5004804;28;20273;-83
2022/04/28 12:04:06;;;;;;;8.98;6.07;;;;;;;;;;5005676;28;20159;-83
2022/04/28 12:06:32;;;;;;;8.70;6.55;;;;;;;;;;5005379;28;20791;-83
2022/04/28 12:08:59;;;;;;;10.35;6.65;;;;;;;;;;5004969;28;20032;-83
2022/04/28 12:14:27;;;;;;;8.40;6.85;;;;;;;;;;5005492;28;20050;-83
2022/04/28 12:19:50;;;;;;;7.78;6.25;;;;;;;;;;5003793;28;20396;-82
2022/04/28 12:22:28;;;;;;;8.10;5.40;;;;;;;;;;5003788;28;20027;-82
2022/04/28 12:24:54;;;;;;;8.52;5.63;;;;;;;;;;5000194;28;20470;-82
2022/04/28 12:27:20;;;;;;;7.78;5.50;;;;;;;;;;5018531;28;20019;-83
2022/04/28 12:29:52;;;;;;;7.32;5.25;;;;;;;;;;4999233;28;20035;-82
2022/04/28 12:32:18;;;;;;;7.43;6.30;;;;;;;;;;5007650;28;20082;-81
2022/04/28 12:34:44;;;;;;;6.20;4.70;;;;;;;;;;5015231;28;20021;-82
2022/04/28 12:37:10;;;;;;;8.52;5.90;;;;;;;;;;5016694;28;20030;-83
2022/04/28 12:39:56;;;;;;;8.48;5.72;;;;;;;;;;5002842;28;20022;-82
2022/04/28 12:42:22;;;;;;;7.57;5.20;;;;;;;;;;5001633;28;20460;-82
2022/04/28 12:44:48;;;;;;;7.40;5.53;;;;;;;;;;4993195;28;20437;-83
2022/04/28 12:47:14;;;;;;;7.47;5.47;;;;;;;;;;4997388;28;20018;-82
2022/04/28 12:49:44;;;;;;;7.72;5.85;;;;;;;;;;5002366;28;20065;-82
2022/04/28 12:52:10;;;;;;;7.60;5.30;;;;;;;;;;5003125;28;20054;-82
2022/04/28 12:54:36;;;;;;;6.78;5.20;;;;;;;;;;5000239;28;20038;-83
2022/04/28 12:57:04;;;;;;;7.85;5.80;;;;;;;;;;5001303;28;20027;-82
2022/04/28 12:59:36;;;;;;;6.97;5.70;;;;;;;;;;4994291;28;20042;-83
2022/04/28 13:02:02;;;;;;;7.60;4.93;;;;;;;;;;5016283;28;20032;-81
2022/04/28 13:04:28;;;;;;;7.75;4.50;;;;;;;;;;5024744;28;20024;-83
2022/04/28 13:06:55;;;;;;;7.45;5.32;;;;;;;;;;5022774;28;20041;-82
2022/04/28 13:09:21;;;;;;;8.13;5.68;;;;;;;;;;5018719;28;20018;-82
2022/04/28 13:11:48;;;;;;;6.82;4.68;;;;;;;;;;5013558;28;20031;-83
2022/04/28 13:14:16;;;;;;;8.45;5.28;;;;;;;;;;5002861;28;20073;-83
2022/04/28 13:16:42;;;;;;;6.97;5.32;;;;;;;;;;5000852;28;20037;-83
2022/04/28 13:19:09;;;;;;;6.25;4.32;;;;;;;;;;5004544;28;20057;-83
2022/04/28 13:21:36;;;;;;;6.72;5.05;;;;;;;;;;5002592;28;20057;-83
2022/04/28 13:24:02;;;;;;;7.65;5.90;;;;;;;;;;4999112;28;20050;-83
2022/04/28 13:26:29;;;;;;;9.95;5.03;;;;;;;;;;4996566;28;20024;-83
2022/04/28 13:28:56;;;;;;;7.75;5.68;;;;;;;;;;4988854;28;20103;-82
2022/04/28 13:31:22;;;;;;;6.97;4.70;;;;;;;;;;4983522;28;20029;-83
2022/04/28 13:33:49;;;;;;;7.57;4.97;;;;;;;;;;4986423;28;20022;-83
2022/04/28 13:36:15;;;;;;;6.72;5.15;;;;;;;;;;5002542;28;20037;-83
2022/04/28 13:38:41;;;;;;;8.48;5.43;;;;;;;;;;5001170;28;20037;-83
2022/04/28 13:41:08;;;;;;;7.30;5.07;;;;;;;;;;5004221;28;20050;-83
2022/04/28 13:43:35;;;;;;;7.10;5.00;;;;;;;;;;5013129;28;20096;-83
2022/04/28 13:46:06;;;;;;;6.63;5.05;;;;;;;;;;5004549;28;20030;-84
2022/04/28 13:48:32;;;;;;;8.30;5.03;;;;;;;;;;5005154;28;20034;-84
2022/04/28 13:50:59;;;;;;;7.25;4.22;;;;;;;;;;5003521;28;20023;-83
2022/04/28 13:53:28;;;;;;;7.55;5.13;;;;;;;;;;5002194;28;20038;-82
2022/04/28 13:55:58;;;;;;;7.47;5.00;;;;;;;;;;5002041;28;20044;-84
2022/04/28 13:58:25;;;;;;;6.65;4.93;;;;;;;;;;5001855;28;20042;-83
2022/04/28 14:00:52;;;;;;;6.43;4.60;;;;;;;;;;5005226;28;20037;-83
2022/04/28 14:03:26;;;;;;;7.43;4.43;;;;;;;;;;5006869;28;20030;-83
2022/04/28 14:05:53;;;;;;;5.95;4.40;;;;;;;;;;5005762;28;20026;-83
2022/04/28 14:08:19;;;;;;;6.15;4.30;;;;;;;;;;5005161;28;20086;-83
2022/04/28 14:10:46;;;;;;;7.57;4.82;;;;;;;;;;5006215;28;20084;-83
2022/04/28 14:13:12;;;;;;;9.20;6.05;;;;;;;;;;5004985;28;20097;-83
2022/04/28 14:15:38;;;;;;;7.43;4.32;;;;;;;;;;5004728;28;20023;-84
2022/04/28 14:18:05;;;;;;;7.80;4.30;;;;;;;;;;5000278;28;20027;-83
2022/04/28 14:20:31;;;;;;;6.60;4.10;;;;;;;;;;4984218;28;20042;-83
2022/04/28 14:22:58;;;;;;;6.25;4.03;;;;;;;;;;4983351;28;20086;-83
2022/04/28 14:25:24;;;;;;;5.97;4.13;;;;;;;;;;4998770;28;20057;-84
2022/04/28 14:27:50;;;;;;;7.55;4.25;;;;;;;;;;5002010;28;20029;-84
2022/04/28 14:30:16;;;;;;;6.07;4.10;;;;;;;;;;4992252;28;20397;-84
2022/04/28 14:32:43;;;;;;;6.00;4.38;;;;;;;;;;4993818;28;20030;-84
2022/04/28 14:35:11;;;;;;;6.45;4.40;;;;;;;;;;5003017;28;20465;-84
2022/04/28 14:37:39;;;;;;;6.40;4.20;;;;;;;;;;5002525;28;20069;-84
2022/04/28 14:40:16;;;;;;;6.57;4.07;;;;;;;;;;5000812;28;20093;-84
2022/04/28 14:42:42;;;;;;;6.70;4.13;;;;;;;;;;5002085;28;20046;-84
2022/04/28 14:45:09;;;;;;;7.53;4.00;;;;;;;;;;5002909;28;20026;-84
2022/04/28 14:47:35;;;;;;;8.18;4.30;;;;;;;;;;4991694;28;20038;-83
2022/04/28 14:52:47;;;;;;;8.73;3.90;;;;;;;;;;5002311;28;20040;-84
2022/04/28 14:55:13;;;;;;;6.88;3.92;;;;;;;;;;4987703;28;20158;-84
2022/04/28 14:57:40;;;;;;;7.13;3.85;;;;;;;;;;4987073;28;20019;-85
2022/04/28 15:00:08;;;;;;;5.95;3.65;;;;;;;;;;4996771;28;20057;-83
2022/04/28 15:02:34;;;;;;;5.72;3.50;;;;;;;;;;4999746;28;20026;-84
2022/04/28 15:05:04;;;;;;;6.60;3.63;;;;;;;;;;5007210;28;20111;-83
2022/04/28 15:07:30;;;;;;;8.15;3.95;;;;;;;;;;4993947;28;20030;-83
2022/04/28 15:10:00;;;;;;;7.55;3.97;;;;;;;;;;5006648;28;20038;-84
2022/04/28 15:12:29;;;;;;;5.15;3.35;;;;;;;;;;5005095;28;20461;-83